sensor_id;sensor_type;location;lat;lon;timestamp;P1;durP1;ratioP1;P2;durP2;ratioP2
15708;SDS011;7954;51.914;8.420;2022-11-13T00:01:10;12.13;;;10.60;;
15708;SDS011;7954;51.914;8.420;2022-11-13T00:03:39;11.43;;;10.33;;
15708;SDS011;7954;51.914;8.420;2022-11-13T00:06:08;12.53;;;11.20;;
15708;SDS011;7954;51.914;8.420;2022-11-13T00:08:37;12.77;;;11.47;;
15708;SDS011;7954;51.914;8.420;2022-11-13T00:11:05;12.47;;;11.13;;
15708;SDS011;7954;51.914;8.420;2022-11-13T00:13:36;12.77;;;11.47;;
15708;SDS011;7954;51.914;8.420;2022-11-13T00:16:06;11.70;;;10.50;;
15708;SDS011;7954;51.914;8.420;2022-11-13T00:18:37;13.17;;;11.87;;
15708;SDS011;7954;51.914;8.420;2022-11-13T00:21:09;11.40;;;10.30;;
15708;SDS011;7954;51.914;8.420;2022-11-13T00:23:39;10.97;;;9.87;;
15708;SDS011;7954;51.914;8.420;2022-11-13T00:26:08;11.80;;;10.60;;
15708;SDS011;7954;51.914;8.420;2022-11-13T00:28:40;10.63;;;9.53;;
15708;SDS011;7954;51.914;8.420;2022-11-13T00:31:09;10.40;;;9.30;;
15708;SDS011;7954;51.914;8.420;2022-11-13T00:33:39;10.10;;;9.10;;
15708;SDS011;7954;51.914;8.420;2022-11-13T00:36:28;10.77;;;9.57;;
15708;SDS011;7954;51.914;8.420;2022-11-13T00:38:56;10.20;;;9.20;;
15708;SDS011;7954;51.914;8.420;2022-11-13T00:41:24;9.60;;;8.70;;
15708;SDS011;7954;51.914;8.420;2022-11-13T00:43:53;9.27;;;8.37;;
15708;SDS011;7954;51.914;8.420;2022-11-13T00:46:21;9.87;;;8.93;;
15708;SDS011;7954;51.914;8.420;2022-11-13T00:48:50;9.57;;;8.57;;
15708;SDS011;7954;51.914;8.420;2022-11-13T00:51:18;8.97;;;8.17;;
15708;SDS011;7954;51.914;8.420;2022-11-13T00:53:46;10.57;;;9.07;;
15708;SDS011;7954;51.914;8.420;2022-11-13T00:56:14;9.10;;;8.20;;
15708;SDS011;7954;51.914;8.420;2022-11-13T00:58:42;8.83;;;8.03;;
15708;SDS011;7954;51.914;8.420;2022-11-13T01:01:13;8.73;;;7.93;;
15708;SDS011;7954;51.914;8.420;2022-11-13T01:03:43;8.70;;;7.90;;
15708;SDS011;7954;51.914;8.420;2022-11-13T01:06:13;8.73;;;7.93;;
15708;SDS011;7954;51.914;8.420;2022-11-13T01:08:44;8.00;;;7.20;;
15708;SDS011;7954;51.914;8.420;2022-11-13T01:11:13;7.53;;;6.83;;
15708;SDS011;7954;51.914;8.420;2022-11-13T01:13:44;7.73;;;7.03;;
15708;SDS011;7954;51.914;8.420;2022-11-13T01:16:16;7.60;;;6.87;;
15708;SDS011;7954;51.914;8.420;2022-11-13T01:18:45;8.30;;;7.53;;
15708;SDS011;7954;51.914;8.420;2022-11-13T01:21:14;8.03;;;7.23;;
15708;SDS011;7954;51.914;8.420;2022-11-13T01:23:43;8.47;;;7.43;;
15708;SDS011;7954;51.914;8.420;2022-11-13T01:26:14;7.90;;;7.10;;
15708;SDS011;7954;51.914;8.420;2022-11-13T01:28:46;8.00;;;7.30;;
15708;SDS011;7954;51.914;8.420;2022-11-13T01:31:16;7.40;;;6.70;;
15708;SDS011;7954;51.914;8.420;2022-11-13T01:33:46;7.07;;;6.37;;
15708;SDS011;7954;51.914;8.420;2022-11-13T01:36:15;7.33;;;6.00;;
15708;SDS011;7954;51.914;8.420;2022-11-13T01:38:45;6.87;;;6.17;;
15708;SDS011;7954;51.914;8.420;2022-11-13T01:41:15;6.23;;;5.67;;
15708;SDS011;7954;51.914;8.420;2022-11-13T01:43:49;6.07;;;5.47;;
15708;SDS011;7954;51.914;8.420;2022-11-13T01:46:20;5.97;;;5.40;;
15708;SDS011;7954;51.914;8.420;2022-11-13T01:48:53;6.10;;;5.50;;
15708;SDS011;7954;51.914;8.420;2022-11-13T01:51:26;6.17;;;5.07;;
15708;SDS011;7954;51.914;8.420;2022-11-13T01:53:57;5.07;;;4.57;;
15708;SDS011;7954;51.914;8.420;2022-11-13T01:56:27;4.73;;;4.23;;
15708;SDS011;7954;51.914;8.420;2022-11-13T01:58:57;4.77;;;4.33;;
15708;SDS011;7954;51.914;8.420;2022-11-13T02:01:31;5.73;;;4.37;;
15708;SDS011;7954;51.914;8.420;2022-11-13T02:04:00;4.50;;;4.10;;
15708;SDS011;7954;51.914;8.420;2022-11-13T02:06:31;3.90;;;3.50;;
15708;SDS011;7954;51.914;8.420;2022-11-13T02:09:02;4.63;;;4.10;;
15708;SDS011;7954;51.914;8.420;2022-11-13T02:11:32;4.40;;;3.90;;
15708;SDS011;7954;51.914;8.420;2022-11-13T02:14:00;4.13;;;3.73;;
15708;SDS011;7954;51.914;8.420;2022-11-13T02:16:30;4.37;;;3.90;;
15708;SDS011;7954;51.914;8.420;2022-11-13T02:19:00;4.57;;;3.77;;
15708;SDS011;7954;51.914;8.420;2022-11-13T02:21:32;4.00;;;3.60;;
15708;SDS011;7954;51.914;8.420;2022-11-13T02:24:15;4.23;;;3.83;;
15708;SDS011;7954;51.914;8.420;2022-11-13T02:26:51;3.37;;;3.07;;
15708;SDS011;7954;51.914;8.420;2022-11-13T02:29:21;3.70;;;3.40;;
15708;SDS011;7954;51.914;8.420;2022-11-13T02:31:49;3.70;;;3.27;;
15708;SDS011;7954;51.914;8.420;2022-11-13T02:34:17;3.20;;;2.90;;
15708;SDS011;7954;51.914;8.420;2022-11-13T02:36:46;3.73;;;3.40;;
15708;SDS011;7954;51.914;8.420;2022-11-13T02:39:17;3.70;;;3.40;;
15708;SDS011;7954;51.914;8.420;2022-11-13T02:41:45;3.67;;;3.37;;
15708;SDS011;7954;51.914;8.420;2022-11-13T02:44:13;3.73;;;3.40;;
15708;SDS011;7954;51.914;8.420;2022-11-13T02:46:41;4.00;;;3.60;;
15708;SDS011;7954;51.914;8.420;2022-11-13T02:49:09;4.17;;;3.77;;
15708;SDS011;7954;51.914;8.420;2022-11-13T02:51:37;3.90;;;3.60;;
15708;SDS011;7954;51.914;8.420;2022-11-13T02:54:06;4.43;;;4.03;;
15708;SDS011;7954;51.914;8.420;2022-11-13T02:56:40;4.63;;;4.20;;
15708;SDS011;7954;51.914;8.420;2022-11-13T02:59:09;4.30;;;3.90;;
15708;SDS011;7954;51.914;8.420;2022-11-13T03:01:37;3.87;;;3.57;;
15708;SDS011;7954;51.914;8.420;2022-11-13T03:04:05;3.97;;;3.60;;
15708;SDS011;7954;51.914;8.420;2022-11-13T03:06:33;4.87;;;4.40;;
15708;SDS011;7954;51.914;8.420;2022-11-13T03:09:01;4.33;;;3.60;;
15708;SDS011;7954;51.914;8.420;2022-11-13T03:11:29;3.80;;;3.40;;
15708;SDS011;7954;51.914;8.420;2022-11-13T03:13:59;3.57;;;3.27;;
15708;SDS011;7954;51.914;8.420;2022-11-13T03:16:27;4.23;;;3.40;;
15708;SDS011;7954;51.914;8.420;2022-11-13T03:18:55;3.97;;;3.60;;
15708;SDS011;7954;51.914;8.420;2022-11-13T03:21:23;3.43;;;3.13;;
15708;SDS011;7954;51.914;8.420;2022-11-13T03:23:52;4.17;;;3.07;;
15708;SDS011;7954;51.914;8.420;2022-11-13T03:26:22;3.40;;;3.10;;
15708;SDS011;7954;51.914;8.420;2022-11-13T03:28:50;3.83;;;3.20;;
15708;SDS011;7954;51.914;8.420;2022-11-13T03:31:20;3.73;;;3.43;;
15708;SDS011;7954;51.914;8.420;2022-11-13T03:33:50;4.07;;;3.67;;
15708;SDS011;7954;51.914;8.420;2022-11-13T03:36:19;3.30;;;3.00;;
15708;SDS011;7954;51.914;8.420;2022-11-13T03:38:48;4.50;;;4.10;;
15708;SDS011;7954;51.914;8.420;2022-11-13T03:41:16;3.63;;;3.27;;
15708;SDS011;7954;51.914;8.420;2022-11-13T03:43:44;3.87;;;3.30;;
15708;SDS011;7954;51.914;8.420;2022-11-13T03:46:12;3.20;;;2.90;;
15708;SDS011;7954;51.914;8.420;2022-11-13T03:48:42;3.57;;;3.17;;
15708;SDS011;7954;51.914;8.420;2022-11-13T03:51:10;3.53;;;3.23;;
15708;SDS011;7954;51.914;8.420;2022-11-13T03:53:38;3.80;;;3.40;;
15708;SDS011;7954;51.914;8.420;2022-11-13T03:56:06;3.13;;;2.83;;
15708;SDS011;7954;51.914;8.420;2022-11-13T03:58:34;3.30;;;3.00;;
15708;SDS011;7954;51.914;8.420;2022-11-13T04:01:05;3.03;;;2.83;;
15708;SDS011;7954;51.914;8.420;2022-11-13T04:03:33;2.97;;;2.70;;
15708;SDS011;7954;51.914;8.420;2022-11-13T04:06:04;3.00;;;2.70;;
15708;SDS011;7954;51.914;8.420;2022-11-13T04:08:32;3.13;;;2.70;;
15708;SDS011;7954;51.914;8.420;2022-11-13T04:11:05;3.10;;;2.77;;
15708;SDS011;7954;51.914;8.420;2022-11-13T04:13:34;2.93;;;2.73;;
15708;SDS011;7954;51.914;8.420;2022-11-13T04:16:02;2.90;;;2.70;;
15708;SDS011;7954;51.914;8.420;2022-11-13T04:18:30;3.60;;;3.30;;
15708;SDS011;7954;51.914;8.420;2022-11-13T04:20:58;3.23;;;2.93;;
15708;SDS011;7954;51.914;8.420;2022-11-13T04:23:28;2.70;;;2.50;;
15708;SDS011;7954;51.914;8.420;2022-11-13T04:25:57;3.67;;;2.93;;
15708;SDS011;7954;51.914;8.420;2022-11-13T04:28:25;3.30;;;2.60;;
15708;SDS011;7954;51.914;8.420;2022-11-13T04:30:54;4.27;;;2.77;;
15708;SDS011;7954;51.914;8.420;2022-11-13T04:33:23;2.40;;;2.20;;
15708;SDS011;7954;51.914;8.420;2022-11-13T04:35:51;3.43;;;2.77;;
15708;SDS011;7954;51.914;8.420;2022-11-13T04:38:19;2.47;;;2.27;;
15708;SDS011;7954;51.914;8.420;2022-11-13T04:40:49;2.30;;;2.10;;
15708;SDS011;7954;51.914;8.420;2022-11-13T04:43:37;2.33;;;2.00;;
15708;SDS011;7954;51.914;8.420;2022-11-13T04:46:04;2.20;;;2.00;;
15708;SDS011;7954;51.914;8.420;2022-11-13T04:48:32;2.37;;;2.17;;
15708;SDS011;7954;51.914;8.420;2022-11-13T04:51:00;2.43;;;2.23;;
15708;SDS011;7954;51.914;8.420;2022-11-13T04:53:28;2.60;;;2.27;;
15708;SDS011;7954;51.914;8.420;2022-11-13T04:55:57;2.53;;;2.30;;
15708;SDS011;7954;51.914;8.420;2022-11-13T04:58:25;2.40;;;2.20;;
15708;SDS011;7954;51.914;8.420;2022-11-13T05:00:53;2.90;;;2.20;;
15708;SDS011;7954;51.914;8.420;2022-11-13T05:03:21;2.30;;;2.10;;
15708;SDS011;7954;51.914;8.420;2022-11-13T05:05:49;1.70;;;1.60;;
15708;SDS011;7954;51.914;8.420;2022-11-13T05:08:17;2.30;;;2.10;;
15708;SDS011;7954;51.914;8.420;2022-11-13T05:10:45;2.43;;;2.17;;
15708;SDS011;7954;51.914;8.420;2022-11-13T05:13:14;2.87;;;2.00;;
15708;SDS011;7954;51.914;8.420;2022-11-13T05:15:42;2.40;;;2.20;;
15708;SDS011;7954;51.914;8.420;2022-11-13T05:18:10;3.30;;;2.07;;
15708;SDS011;7954;51.914;8.420;2022-11-13T05:20:38;1.80;;;1.70;;
15708;SDS011;7954;51.914;8.420;2022-11-13T05:23:06;2.00;;;1.80;;
15708;SDS011;7954;51.914;8.420;2022-11-13T05:25:34;1.87;;;1.77;;
15708;SDS011;7954;51.914;8.420;2022-11-13T05:28:03;2.20;;;1.80;;
15708;SDS011;7954;51.914;8.420;2022-11-13T05:30:32;1.70;;;1.60;;
15708;SDS011;7954;51.914;8.420;2022-11-13T05:33:00;2.00;;;1.73;;
15708;SDS011;7954;51.914;8.420;2022-11-13T05:35:28;2.83;;;1.87;;
15708;SDS011;7954;51.914;8.420;2022-11-13T05:37:58;1.70;;;1.60;;
15708;SDS011;7954;51.914;8.420;2022-11-13T05:40:26;2.20;;;1.70;;
15708;SDS011;7954;51.914;8.420;2022-11-13T05:42:55;1.50;;;1.40;;
15708;SDS011;7954;51.914;8.420;2022-11-13T05:45:22;1.50;;;1.40;;
15708;SDS011;7954;51.914;8.420;2022-11-13T05:47:52;1.40;;;1.30;;
15708;SDS011;7954;51.914;8.420;2022-11-13T05:50:20;1.57;;;1.47;;
15708;SDS011;7954;51.914;8.420;2022-11-13T05:52:49;1.40;;;1.30;;
15708;SDS011;7954;51.914;8.420;2022-11-13T05:55:16;1.50;;;1.40;;
15708;SDS011;7954;51.914;8.420;2022-11-13T05:57:48;1.50;;;1.40;;
15708;SDS011;7954;51.914;8.420;2022-11-13T06:00:17;1.50;;;1.40;;
15708;SDS011;7954;51.914;8.420;2022-11-13T06:02:45;1.87;;;1.30;;
15708;SDS011;7954;51.914;8.420;2022-11-13T06:05:15;1.43;;;1.33;;
15708;SDS011;7954;51.914;8.420;2022-11-13T06:07:43;1.70;;;1.50;;
15708;SDS011;7954;51.914;8.420;2022-11-13T06:10:12;1.83;;;1.73;;
15708;SDS011;7954;51.914;8.420;2022-11-13T06:12:39;1.67;;;1.57;;
15708;SDS011;7954;51.914;8.420;2022-11-13T06:15:08;1.70;;;1.60;;
15708;SDS011;7954;51.914;8.420;2022-11-13T06:17:36;1.60;;;1.50;;
15708;SDS011;7954;51.914;8.420;2022-11-13T06:20:06;1.93;;;1.60;;
15708;SDS011;7954;51.914;8.420;2022-11-13T06:22:36;1.73;;;1.60;;
15708;SDS011;7954;51.914;8.420;2022-11-13T06:25:04;1.60;;;1.50;;
15708;SDS011;7954;51.914;8.420;2022-11-13T06:27:33;1.87;;;1.77;;
15708;SDS011;7954;51.914;8.420;2022-11-13T06:30:01;2.00;;;1.80;;
15708;SDS011;7954;51.914;8.420;2022-11-13T06:32:29;2.70;;;2.40;;
15708;SDS011;7954;51.914;8.420;2022-11-13T06:34:57;2.30;;;2.10;;
15708;SDS011;7954;51.914;8.420;2022-11-13T06:37:24;2.30;;;2.10;;
15708;SDS011;7954;51.914;8.420;2022-11-13T06:39:59;2.13;;;1.93;;
15708;SDS011;7954;51.914;8.420;2022-11-13T06:42:27;2.57;;;2.33;;
15708;SDS011;7954;51.914;8.420;2022-11-13T06:44:55;2.90;;;2.43;;
15708;SDS011;7954;51.914;8.420;2022-11-13T06:47:23;3.37;;;2.80;;
15708;SDS011;7954;51.914;8.420;2022-11-13T06:49:50;2.43;;;2.20;;
15708;SDS011;7954;51.914;8.420;2022-11-13T06:52:19;2.47;;;2.27;;
15708;SDS011;7954;51.914;8.420;2022-11-13T06:54:47;2.20;;;2.00;;
15708;SDS011;7954;51.914;8.420;2022-11-13T06:57:17;1.90;;;1.80;;
15708;SDS011;7954;51.914;8.420;2022-11-13T06:59:45;2.10;;;1.90;;
15708;SDS011;7954;51.914;8.420;2022-11-13T07:02:15;1.60;;;1.50;;
15708;SDS011;7954;51.914;8.420;2022-11-13T07:04:42;2.00;;;1.80;;
15708;SDS011;7954;51.914;8.420;2022-11-13T07:07:11;1.80;;;1.57;;
15708;SDS011;7954;51.914;8.420;2022-11-13T07:09:39;1.80;;;1.67;;
15708;SDS011;7954;51.914;8.420;2022-11-13T07:12:07;2.00;;;1.80;;
15708;SDS011;7954;51.914;8.420;2022-11-13T07:14:36;2.20;;;1.80;;
15708;SDS011;7954;51.914;8.420;2022-11-13T07:17:05;2.30;;;1.80;;
15708;SDS011;7954;51.914;8.420;2022-11-13T07:19:37;1.70;;;1.60;;
15708;SDS011;7954;51.914;8.420;2022-11-13T07:22:05;1.83;;;1.73;;
15708;SDS011;7954;51.914;8.420;2022-11-13T07:24:33;2.23;;;1.97;;
15708;SDS011;7954;51.914;8.420;2022-11-13T07:27:03;1.70;;;1.60;;
15708;SDS011;7954;51.914;8.420;2022-11-13T07:29:31;2.53;;;2.07;;
15708;SDS011;7954;51.914;8.420;2022-11-13T07:32:00;2.00;;;1.90;;
15708;SDS011;7954;51.914;8.420;2022-11-13T07:34:28;2.20;;;2.00;;
15708;SDS011;7954;51.914;8.420;2022-11-13T07:36:56;2.00;;;1.67;;
15708;SDS011;7954;51.914;8.420;2022-11-13T07:39:24;1.73;;;1.63;;
15708;SDS011;7954;51.914;8.420;2022-11-13T07:41:54;2.33;;;2.00;;
15708;SDS011;7954;51.914;8.420;2022-11-13T07:44:22;2.53;;;1.70;;
15708;SDS011;7954;51.914;8.420;2022-11-13T07:47:14;2.03;;;1.83;;
15708;SDS011;7954;51.914;8.420;2022-11-13T07:49:42;1.87;;;1.77;;
15708;SDS011;7954;51.914;8.420;2022-11-13T07:52:10;2.80;;;2.30;;
15708;SDS011;7954;51.914;8.420;2022-11-13T07:54:38;2.40;;;2.20;;
15708;SDS011;7954;51.914;8.420;2022-11-13T07:57:06;2.90;;;2.20;;
15708;SDS011;7954;51.914;8.420;2022-11-13T07:59:34;2.30;;;2.10;;
15708;SDS011;7954;51.914;8.420;2022-11-13T08:02:02;2.20;;;2.00;;
15708;SDS011;7954;51.914;8.420;2022-11-13T08:04:32;2.70;;;2.00;;
15708;SDS011;7954;51.914;8.420;2022-11-13T08:07:00;1.90;;;1.80;;
15708;SDS011;7954;51.914;8.420;2022-11-13T08:09:28;2.00;;;1.80;;
15708;SDS011;7954;51.914;8.420;2022-11-13T08:11:56;2.97;;;2.77;;
15708;SDS011;7954;51.914;8.420;2022-11-13T08:14:24;2.70;;;2.50;;
15708;SDS011;7954;51.914;8.420;2022-11-13T08:16:51;3.07;;;2.73;;
15708;SDS011;7954;51.914;8.420;2022-11-13T08:19:19;2.70;;;2.50;;
15708;SDS011;7954;51.914;8.420;2022-11-13T08:21:49;2.83;;;2.63;;
15708;SDS011;7954;51.914;8.420;2022-11-13T08:24:17;3.10;;;2.80;;
15708;SDS011;7954;51.914;8.420;2022-11-13T08:26:44;3.70;;;3.40;;
15708;SDS011;7954;51.914;8.420;2022-11-13T08:29:13;3.83;;;3.43;;
15708;SDS011;7954;51.914;8.420;2022-11-13T08:31:41;4.60;;;4.07;;
15708;SDS011;7954;51.914;8.420;2022-11-13T08:34:09;5.17;;;4.53;;
15708;SDS011;7954;51.914;8.420;2022-11-13T08:36:37;4.60;;;3.80;;
15708;SDS011;7954;51.914;8.420;2022-11-13T08:39:07;3.77;;;3.20;;
15708;SDS011;7954;51.914;8.420;2022-11-13T08:41:35;3.00;;;2.70;;
15708;SDS011;7954;51.914;8.420;2022-11-13T08:44:03;2.23;;;2.03;;
15708;SDS011;7954;51.914;8.420;2022-11-13T08:46:31;2.43;;;1.80;;
15708;SDS011;7954;51.914;8.420;2022-11-13T08:49:00;4.20;;;3.90;;
15708;SDS011;7954;51.914;8.420;2022-11-13T08:51:30;53.93;;;39.97;;
15708;SDS011;7954;51.914;8.420;2022-11-13T08:53:57;59.40;;;43.47;;
15708;SDS011;7954;51.914;8.420;2022-11-13T08:56:27;42.77;;;31.67;;
15708;SDS011;7954;51.914;8.420;2022-11-13T08:58:55;15.40;;;12.37;;
15708;SDS011;7954;51.914;8.420;2022-11-13T09:01:22;6.47;;;5.67;;
15708;SDS011;7954;51.914;8.420;2022-11-13T09:03:50;3.93;;;3.30;;
15708;SDS011;7954;51.914;8.420;2022-11-13T09:06:18;3.50;;;3.20;;
15708;SDS011;7954;51.914;8.420;2022-11-13T09:08:47;3.00;;;2.70;;
15708;SDS011;7954;51.914;8.420;2022-11-13T09:11:15;3.93;;;2.97;;
15708;SDS011;7954;51.914;8.420;2022-11-13T09:13:45;2.40;;;2.20;;
15708;SDS011;7954;51.914;8.420;2022-11-13T09:16:18;2.13;;;2.00;;
15708;SDS011;7954;51.914;8.420;2022-11-13T09:18:47;2.10;;;1.90;;
15708;SDS011;7954;51.914;8.420;2022-11-13T09:21:16;2.10;;;1.90;;
15708;SDS011;7954;51.914;8.420;2022-11-13T09:23:44;2.00;;;1.80;;
15708;SDS011;7954;51.914;8.420;2022-11-13T09:26:12;1.70;;;1.60;;
15708;SDS011;7954;51.914;8.420;2022-11-13T09:28:40;1.60;;;1.50;;
15708;SDS011;7954;51.914;8.420;2022-11-13T09:31:10;1.70;;;1.60;;
15708;SDS011;7954;51.914;8.420;2022-11-13T09:33:38;2.57;;;1.60;;
15708;SDS011;7954;51.914;8.420;2022-11-13T09:36:08;1.43;;;1.33;;
15708;SDS011;7954;51.914;8.420;2022-11-13T09:38:37;1.90;;;1.80;;
15708;SDS011;7954;51.914;8.420;2022-11-13T09:41:07;2.20;;;2.00;;
15708;SDS011;7954;51.914;8.420;2022-11-13T09:43:41;2.43;;;2.00;;
15708;SDS011;7954;51.914;8.420;2022-11-13T09:46:17;1.80;;;1.70;;
15708;SDS011;7954;51.914;8.420;2022-11-13T09:48:49;2.97;;;1.73;;
15708;SDS011;7954;51.914;8.420;2022-11-13T09:51:21;1.90;;;1.70;;
15708;SDS011;7954;51.914;8.420;2022-11-13T09:53:54;2.03;;;1.70;;
15708;SDS011;7954;51.914;8.420;2022-11-13T09:56:26;3.10;;;1.70;;
15708;SDS011;7954;51.914;8.420;2022-11-13T09:58:59;1.73;;;1.63;;
15708;SDS011;7954;51.914;8.420;2022-11-13T10:01:32;1.80;;;1.50;;
15708;SDS011;7954;51.914;8.420;2022-11-13T10:04:07;1.80;;;1.70;;
15708;SDS011;7954;51.914;8.420;2022-11-13T10:06:44;2.17;;;1.90;;
15708;SDS011;7954;51.914;8.420;2022-11-13T10:09:27;2.30;;;2.10;;
15708;SDS011;7954;51.914;8.420;2022-11-13T10:12:02;2.30;;;2.10;;
15708;SDS011;7954;51.914;8.420;2022-11-13T10:14:34;2.77;;;2.00;;
15708;SDS011;7954;51.914;8.420;2022-11-13T10:17:07;2.30;;;2.10;;
15708;SDS011;7954;51.914;8.420;2022-11-13T10:19:44;2.87;;;1.60;;
15708;SDS011;7954;51.914;8.420;2022-11-13T10:22:18;2.40;;;1.60;;
15708;SDS011;7954;51.914;8.420;2022-11-13T10:25:00;1.97;;;1.50;;
15708;SDS011;7954;51.914;8.420;2022-11-13T10:27:36;1.47;;;1.37;;
15708;SDS011;7954;51.914;8.420;2022-11-13T10:30:07;2.00;;;1.90;;
15708;SDS011;7954;51.914;8.420;2022-11-13T10:32:44;7.60;;;2.17;;
15708;SDS011;7954;51.914;8.420;2022-11-13T10:38:05;1.50;;;1.40;;
15708;SDS011;7954;51.914;8.420;2022-11-13T10:40:36;2.27;;;2.00;;
15708;SDS011;7954;51.914;8.420;2022-11-13T10:43:09;2.20;;;2.00;;
15708;SDS011;7954;51.914;8.420;2022-11-13T10:45:41;3.70;;;3.40;;
15708;SDS011;7954;51.914;8.420;2022-11-13T10:48:19;1.87;;;1.70;;
15708;SDS011;7954;51.914;8.420;2022-11-13T10:50:53;1.77;;;1.50;;
15708;SDS011;7954;51.914;8.420;2022-11-13T10:53:23;1.40;;;1.30;;
15708;SDS011;7954;51.914;8.420;2022-11-13T10:55:55;1.50;;;1.40;;
15708;SDS011;7954;51.914;8.420;2022-11-13T10:58:24;2.80;;;2.27;;
15708;SDS011;7954;51.914;8.420;2022-11-13T11:00:53;2.97;;;2.50;;
15708;SDS011;7954;51.914;8.420;2022-11-13T11:03:23;3.53;;;2.87;;
15708;SDS011;7954;51.914;8.420;2022-11-13T11:05:53;3.03;;;2.83;;
15708;SDS011;7954;51.914;8.420;2022-11-13T11:08:24;3.03;;;2.70;;
15708;SDS011;7954;51.914;8.420;2022-11-13T11:10:57;3.50;;;3.20;;
15708;SDS011;7954;51.914;8.420;2022-11-13T11:13:43;3.47;;;3.17;;
15708;SDS011;7954;51.914;8.420;2022-11-13T11:16:13;3.00;;;2.80;;
15708;SDS011;7954;51.914;8.420;2022-11-13T11:18:48;4.30;;;2.90;;
15708;SDS011;7954;51.914;8.420;2022-11-13T11:21:20;2.87;;;2.67;;
15708;SDS011;7954;51.914;8.420;2022-11-13T11:23:53;3.27;;;2.93;;
15708;SDS011;7954;51.914;8.420;2022-11-13T11:26:26;3.30;;;3.00;;
15708;SDS011;7954;51.914;8.420;2022-11-13T11:29:00;3.87;;;3.17;;
15708;SDS011;7954;51.914;8.420;2022-11-13T11:31:34;3.10;;;2.80;;
15708;SDS011;7954;51.914;8.420;2022-11-13T11:34:13;3.00;;;2.70;;
15708;SDS011;7954;51.914;8.420;2022-11-13T11:36:48;3.17;;;2.87;;
15708;SDS011;7954;51.914;8.420;2022-11-13T11:39:27;3.07;;;2.87;;
15708;SDS011;7954;51.914;8.420;2022-11-13T11:42:02;3.23;;;3.03;;
15708;SDS011;7954;51.914;8.420;2022-11-13T11:44:38;3.13;;;2.83;;
15708;SDS011;7954;51.914;8.420;2022-11-13T11:47:16;3.20;;;2.90;;
15708;SDS011;7954;51.914;8.420;2022-11-13T11:49:47;3.10;;;2.57;;
15708;SDS011;7954;51.914;8.420;2022-11-13T11:52:20;3.10;;;2.87;;
15708;SDS011;7954;51.914;8.420;2022-11-13T11:54:59;2.80;;;2.60;;
15708;SDS011;7954;51.914;8.420;2022-11-13T11:57:42;2.90;;;2.70;;
15708;SDS011;7954;51.914;8.420;2022-11-13T12:00:17;2.93;;;2.73;;
15708;SDS011;7954;51.914;8.420;2022-11-13T12:02:57;2.80;;;2.30;;
15708;SDS011;7954;51.914;8.420;2022-11-13T12:05:39;2.70;;;2.40;;
15708;SDS011;7954;51.914;8.420;2022-11-13T12:08:15;2.60;;;2.40;;
15708;SDS011;7954;51.914;8.420;2022-11-13T12:10:50;2.40;;;2.20;;
15708;SDS011;7954;51.914;8.420;2022-11-13T12:13:26;2.87;;;2.10;;
15708;SDS011;7954;51.914;8.420;2022-11-13T12:16:03;2.10;;;2.00;;
15708;SDS011;7954;51.914;8.420;2022-11-13T12:18:43;1.93;;;1.77;;
15708;SDS011;7954;51.914;8.420;2022-11-13T12:24:11;3.53;;;3.23;;
15708;SDS011;7954;51.914;8.420;2022-11-13T12:26:51;3.17;;;2.97;;
15708;SDS011;7954;51.914;8.420;2022-11-13T12:29:37;2.50;;;2.30;;
15708;SDS011;7954;51.914;8.420;2022-11-13T12:32:22;3.00;;;1.90;;
15708;SDS011;7954;51.914;8.420;2022-11-13T12:34:57;1.80;;;1.70;;
15708;SDS011;7954;51.914;8.420;2022-11-13T12:37:34;3.77;;;1.67;;
15708;SDS011;7954;51.914;8.420;2022-11-13T12:40:19;1.50;;;1.40;;
15708;SDS011;7954;51.914;8.420;2022-11-13T12:42:55;1.70;;;1.60;;
15708;SDS011;7954;51.914;8.420;2022-11-13T12:45:40;1.90;;;1.80;;
15708;SDS011;7954;51.914;8.420;2022-11-13T12:48:25;1.80;;;1.70;;
15708;SDS011;7954;51.914;8.420;2022-11-13T12:50:55;1.60;;;1.50;;
15708;SDS011;7954;51.914;8.420;2022-11-13T12:53:27;1.50;;;1.40;;
15708;SDS011;7954;51.914;8.420;2022-11-13T12:55:57;1.63;;;1.53;;
15708;SDS011;7954;51.914;8.420;2022-11-13T12:58:28;1.70;;;1.60;;
15708;SDS011;7954;51.914;8.420;2022-11-13T13:01:00;1.50;;;1.40;;
15708;SDS011;7954;51.914;8.420;2022-11-13T13:03:37;2.10;;;1.90;;
15708;SDS011;7954;51.914;8.420;2022-11-13T13:06:19;2.00;;;1.80;;
15708;SDS011;7954;51.914;8.420;2022-11-13T13:08:58;2.23;;;2.03;;
15708;SDS011;7954;51.914;8.420;2022-11-13T13:11:36;2.23;;;1.70;;
15708;SDS011;7954;51.914;8.420;2022-11-13T13:14:14;1.77;;;1.67;;
15708;SDS011;7954;51.914;8.420;2022-11-13T13:16:51;2.00;;;1.80;;
15708;SDS011;7954;51.914;8.420;2022-11-13T13:19:32;2.20;;;2.00;;
15708;SDS011;7954;51.914;8.420;2022-11-13T13:22:00;1.77;;;1.67;;
15708;SDS011;7954;51.914;8.420;2022-11-13T13:24:31;3.40;;;2.00;;
15708;SDS011;7954;51.914;8.420;2022-11-13T13:27:00;1.60;;;1.50;;
15708;SDS011;7954;51.914;8.420;2022-11-13T13:29:29;1.50;;;1.40;;
15708;SDS011;7954;51.914;8.420;2022-11-13T13:32:00;2.87;;;2.20;;
15708;SDS011;7954;51.914;8.420;2022-11-13T13:34:41;1.50;;;1.40;;
15708;SDS011;7954;51.914;8.420;2022-11-13T13:37:21;1.70;;;1.60;;
15708;SDS011;7954;51.914;8.420;2022-11-13T13:40:01;1.57;;;1.47;;
15708;SDS011;7954;51.914;8.420;2022-11-13T13:42:46;1.87;;;1.70;;
15708;SDS011;7954;51.914;8.420;2022-11-13T13:45:23;1.60;;;1.50;;
15708;SDS011;7954;51.914;8.420;2022-11-13T13:48:01;2.00;;;1.70;;
15708;SDS011;7954;51.914;8.420;2022-11-13T13:50:38;2.57;;;1.50;;
15708;SDS011;7954;51.914;8.420;2022-11-13T13:53:11;5.43;;;1.50;;
15708;SDS011;7954;51.914;8.420;2022-11-13T13:55:45;1.30;;;1.20;;
15708;SDS011;7954;51.914;8.420;2022-11-13T13:58:17;1.70;;;1.60;;
15708;SDS011;7954;51.914;8.420;2022-11-13T14:00:56;2.90;;;2.70;;
15708;SDS011;7954;51.914;8.420;2022-11-13T14:03:43;2.60;;;2.13;;
15708;SDS011;7954;51.914;8.420;2022-11-13T14:06:17;1.50;;;1.40;;
15708;SDS011;7954;51.914;8.420;2022-11-13T14:08:46;2.70;;;1.70;;
15708;SDS011;7954;51.914;8.420;2022-11-13T14:11:17;2.00;;;1.50;;
15708;SDS011;7954;51.914;8.420;2022-11-13T14:13:46;1.50;;;1.27;;
15708;SDS011;7954;51.914;8.420;2022-11-13T14:16:14;1.43;;;1.33;;
15708;SDS011;7954;51.914;8.420;2022-11-13T14:18:42;1.90;;;1.37;;
15708;SDS011;7954;51.914;8.420;2022-11-13T14:21:11;1.40;;;1.30;;
15708;SDS011;7954;51.914;8.420;2022-11-13T14:23:43;2.20;;;1.80;;
15708;SDS011;7954;51.914;8.420;2022-11-13T14:26:13;1.50;;;1.40;;
15708;SDS011;7954;51.914;8.420;2022-11-13T14:28:44;2.33;;;1.40;;
15708;SDS011;7954;51.914;8.420;2022-11-13T14:31:18;1.47;;;1.37;;
15708;SDS011;7954;51.914;8.420;2022-11-13T14:33:52;1.90;;;1.80;;
15708;SDS011;7954;51.914;8.420;2022-11-13T14:36:23;1.93;;;1.83;;
15708;SDS011;7954;51.914;8.420;2022-11-13T14:38:55;1.87;;;1.77;;
15708;SDS011;7954;51.914;8.420;2022-11-13T14:41:26;2.10;;;1.87;;
15708;SDS011;7954;51.914;8.420;2022-11-13T14:44:00;1.67;;;1.57;;
15708;SDS011;7954;51.914;8.420;2022-11-13T14:46:29;1.80;;;1.63;;
15708;SDS011;7954;51.914;8.420;2022-11-13T14:49:00;3.20;;;2.70;;
15708;SDS011;7954;51.914;8.420;2022-11-13T14:51:28;2.30;;;2.10;;
15708;SDS011;7954;51.914;8.420;2022-11-13T14:53:59;3.17;;;2.20;;
15708;SDS011;7954;51.914;8.420;2022-11-13T14:56:34;2.40;;;2.20;;
15708;SDS011;7954;51.914;8.420;2022-11-13T14:59:07;2.63;;;2.10;;
15708;SDS011;7954;51.914;8.420;2022-11-13T15:01:52;1.90;;;1.80;;
15708;SDS011;7954;51.914;8.420;2022-11-13T15:04:20;2.10;;;1.90;;
15708;SDS011;7954;51.914;8.420;2022-11-13T15:06:49;2.10;;;1.90;;
15708;SDS011;7954;51.914;8.420;2022-11-13T15:09:21;1.67;;;1.57;;
15708;SDS011;7954;51.914;8.420;2022-11-13T15:11:51;1.60;;;1.50;;
15708;SDS011;7954;51.914;8.420;2022-11-13T15:14:21;1.60;;;1.50;;
15708;SDS011;7954;51.914;8.420;2022-11-13T15:16:50;2.00;;;1.80;;
15708;SDS011;7954;51.914;8.420;2022-11-13T15:19:19;2.23;;;1.73;;
15708;SDS011;7954;51.914;8.420;2022-11-13T15:21:53;1.60;;;1.50;;
15708;SDS011;7954;51.914;8.420;2022-11-13T15:24:41;1.77;;;1.67;;
15708;SDS011;7954;51.914;8.420;2022-11-13T15:27:09;1.50;;;1.40;;
15708;SDS011;7954;51.914;8.420;2022-11-13T15:29:41;3.17;;;1.57;;